Time;durP1;ratioP1;P1;durP2;ratioP2;P2;SDS_P1;SDS_P2;PMS_P1;PMS_P2;Temp;Humidity;BMP_temperature;BMP_pressure;BME280_temperature;BME280_humidity;BME280_pressure;Samples;Min_cycle;Max_cycle;Signal;HPM_P1;HPM_P2
2024/02/25 00:00:59;;;;;;;;;;;;;;;5.55;100.00;95951.55;107003;1295;22520;-85
2024/02/25 00:03:46;;;;;;;;;;;;;;;5.54;100.00;95952.16;107081;1292;22544;-84
2024/02/25 00:06:12;;;;;;;;;;;;;;;5.61;100.00;95954.19;107110;1292;22543;-85
2024/02/25 00:08:39;;;;;;;;;;;;;;;5.68;100.00;95948.46;107089;1295;22566;-84
2024/02/25 00:11:05;;;;;;;;;;;;;;;5.68;100.00;95945.69;107082;1294;22573;-85
2024/02/25 00:13:32;;;;;;;;;;;;;;;5.67;100.00;95944.38;107219;1298;22527;-85
2024/02/25 00:15:58;;;;;;;;;;;;;;;5.67;100.00;95941.70;107075;1297;22554;-84
2024/02/25 00:18:24;;;;;;;;;;;;;;;5.73;100.00;95941.27;106994;1300;24295;-84
2024/02/25 00:20:51;;;;;;;;;;;;;;;5.82;99.93;95938.50;107282;1297;25392;-84
2024/02/25 00:23:17;;;;;;;;;;;;;;;5.97;100.00;95937.88;107303;1300;22579;-85
2024/02/25 00:25:44;;;;;;;;;;;;;;;6.09;99.79;95929.83;107211;1294;22568;-84
2024/02/25 00:28:11;;;;;;;;;;;;;;;6.18;99.74;95929.36;107157;1294;22537;-84
2024/02/25 00:30:37;;;;;;;;;;;;;;;6.23;99.40;95927.95;106993;1300;22569;-84
2024/02/25 00:33:04;;;;;;;;;;;;;;;6.29;99.04;95930.19;107189;1300;22546;-84
2024/02/25 00:35:34;;;;;;;;;;;;;;;6.33;99.02;95928.61;107146;1300;22637;-84
2024/02/25 00:38:00;;;;;;;;;;;;;;;6.37;98.71;95932.05;107233;1298;22562;-84
2024/02/25 00:40:26;;;;;;;;;;;;;;;6.39;98.69;95930.73;107042;1295;22539;-84
2024/02/25 00:42:53;;;;;;;;;;;;;;;6.38;99.12;95927.44;107024;1300;22526;-84
2024/02/25 00:45:20;;;;;;;;;;;;;;;6.30;98.93;95920.15;107213;1288;22995;-84
2024/02/25 00:47:46;;;;;;;;;;;;;;;6.24;98.76;95919.09;107102;1292;22537;-84
2024/02/25 00:50:12;;;;;;;;;;;;;;;6.17;98.50;95912.48;107086;1295;22525;-84
2024/02/25 00:52:39;;;;;;;;;;;;;;;6.15;98.76;95910.58;107065;1295;22531;-84
2024/02/25 00:55:06;;;;;;;;;;;;;;;6.05;99.14;95907.75;106970;1300;22579;-84
2024/02/25 00:57:37;;;;;;;;;;;;;;;5.97;98.94;95901.54;107121;1295;22528;-84
2024/02/25 01:00:04;;;;;;;;;;;;;;;5.94;98.83;95898.98;107155;1295;22583;-83
2024/02/25 01:02:30;;;;;;;;;;;;;;;5.96;98.65;95898.42;107248;1300;22523;-83
2024/02/25 01:04:57;;;;;;;;;;;;;;;5.96;99.35;95895.10;107081;1300;23147;-84
2024/02/25 01:07:23;;;;;;;;;;;;;;;5.91;99.03;95901.68;107069;1300;22576;-84
2024/02/25 01:09:50;;;;;;;;;;;;;;;5.80;99.39;95901.61;107075;1300;22553;-84
2024/02/25 01:12:16;;;;;;;;;;;;;;;5.71;99.31;95898.83;107245;1295;24018;-84
2024/02/25 01:14:42;;;;;;;;;;;;;;;5.62;99.48;95902.83;107023;1300;22577;-84
2024/02/25 01:17:09;;;;;;;;;;;;;;;5.55;99.55;95907.05;107181;1298;22947;-85
2024/02/25 01:19:36;;;;;;;;;;;;;;;5.48;99.68;95908.30;107001;1300;22656;-84
2024/02/25 01:22:02;;;;;;;;;;;;;;;5.41;99.61;95909.71;107120;1295;22537;-84
2024/02/25 01:24:29;;;;;;;;;;;;;;;5.38;99.99;95914.18;107208;1295;22836;-85
2024/02/25 01:26:55;;;;;;;;;;;;;;;5.35;99.94;95920.15;107158;1295;22558;-84
2024/02/25 01:29:22;;;;;;;;;;;;;;;5.32;99.92;95920.52;107064;1295;23195;-84
2024/02/25 01:31:50;;;;;;;;;;;;;;;5.28;100.00;95922.83;107150;1292;22550;-84
2024/02/25 01:34:18;;;;;;;;;;;;;;;5.23;99.98;95924.86;107130;1295;22587;-84
2024/02/25 01:36:45;;;;;;;;;;;;;;;5.14;99.97;95921.48;107095;1295;25415;-84
2024/02/25 01:39:12;;;;;;;;;;;;;;;5.04;99.96;95918.77;107087;1293;25251;-84
2024/02/25 01:41:38;;;;;;;;;;;;;;;4.94;100.00;95924.73;107232;1299;22530;-84
2024/02/25 01:44:04;;;;;;;;;;;;;;;4.88;100.00;95931.73;107116;1298;22557;-84
2024/02/25 01:46:31;;;;;;;;;;;;;;;4.84;100.00;95931.46;107031;1300;22607;-84
2024/02/25 01:48:57;;;;;;;;;;;;;;;4.80;100.00;95931.81;107254;1300;22530;-83
2024/02/25 01:51:23;;;;;;;;;;;;;;;4.82;100.00;95931.50;107245;1295;23012;-84
2024/02/25 01:53:50;;;;;;;;;;;;;;;4.84;100.00;95931.63;107089;1298;23415;-84
2024/02/25 01:56:16;;;;;;;;;;;;;;;4.83;100.00;95933.10;106997;1295;22570;-84
2024/02/25 01:58:44;;;;;;;;;;;;;;;4.82;100.00;95929.24;106999;1297;22534;-84
2024/02/25 02:01:11;;;;;;;;;;;;;;;4.81;100.00;95930.73;107054;1298;22555;-84
2024/02/25 02:03:38;;;;;;;;;;;;;;;4.80;100.00;95929.18;107104;1298;22531;-84
2024/02/25 02:06:04;;;;;;;;;;;;;;;4.83;100.00;95925.25;107179;1295;22553;-84
2024/02/25 02:08:30;;;;;;;;;;;;;;;4.87;100.00;95920.54;107107;1295;22594;-84
2024/02/25 02:10:57;;;;;;;;;;;;;;;4.94;100.00;95917.60;107091;1300;23797;-84
2024/02/25 02:13:24;;;;;;;;;;;;;;;4.97;100.00;95915.35;107112;1295;22562;-84
2024/02/25 02:15:50;;;;;;;;;;;;;;;4.97;100.00;95921.38;107203;1298;22550;-84
2024/02/25 02:18:16;;;;;;;;;;;;;;;4.95;100.00;95923.33;107235;1298;22553;-84
2024/02/25 02:20:46;;;;;;;;;;;;;;;4.96;100.00;95922.87;107048;1300;22527;-85
2024/02/25 02:23:12;;;;;;;;;;;;;;;5.00;100.00;95918.63;106987;1300;22554;-84
2024/02/25 02:25:39;;;;;;;;;;;;;;;5.04;100.00;95920.66;107109;1295;22543;-85
2024/02/25 02:28:05;;;;;;;;;;;;;;;5.09;100.00;95923.10;107115;1299;23937;-84
2024/02/25 02:30:32;;;;;;;;;;;;;;;5.06;100.00;95931.21;107116;1300;25408;-85
2024/02/25 02:32:59;;;;;;;;;;;;;;;5.02;100.00;95929.61;107091;1295;22578;-84
2024/02/25 02:35:26;;;;;;;;;;;;;;;5.02;100.00;95931.69;107143;1300;25395;-84
2024/02/25 02:37:52;;;;;;;;;;;;;;;5.02;100.00;95924.78;107171;1295;22523;-84
2024/02/25 02:40:19;;;;;;;;;;;;;;;5.00;100.00;95920.73;107099;1293;22566;-84
2024/02/25 02:42:47;;;;;;;;;;;;;;;4.96;100.00;95922.04;107259;1300;22544;-84
2024/02/25 02:45:13;;;;;;;;;;;;;;;4.94;100.00;95919.24;107082;1300;22543;-84
2024/02/25 02:47:40;;;;;;;;;;;;;;;4.92;100.00;95916.43;107209;1300;22518;-84
2024/02/25 02:50:07;;;;;;;;;;;;;;;4.91;100.00;95919.34;107141;1292;22644;-84
2024/02/25 02:52:33;;;;;;;;;;;;;;;4.91;100.00;95914.64;107085;1298;22568;-84
2024/02/25 02:54:59;;;;;;;;;;;;;;;4.91;100.00;95919.34;107066;1294;22556;-85
2024/02/25 02:57:26;;;;;;;;;;;;;;;4.91;100.00;95919.85;107079;1297;22535;-84
2024/02/25 02:59:52;;;;;;;;;;;;;;;4.89;100.00;95920.91;106998;1300;22603;-84
2024/02/25 03:02:19;;;;;;;;;;;;;;;4.91;100.00;95924.81;106933;1292;22528;-84
2024/02/25 03:04:46;;;;;;;;;;;;;;;4.92;100.00;95925.16;106994;1298;22568;-84
2024/02/25 03:07:12;;;;;;;;;;;;;;;4.92;100.00;95921.37;107246;1292;25417;-84
2024/02/25 03:09:39;;;;;;;;;;;;;;;4.95;100.00;95918.49;107088;1293;22591;-84
2024/02/25 03:12:05;;;;;;;;;;;;;;;4.98;100.00;95916.44;106932;1292;22723;-85
2024/02/25 03:14:32;;;;;;;;;;;;;;;4.97;100.00;95918.66;106968;1298;24260;-84
2024/02/25 03:16:58;;;;;;;;;;;;;;;4.95;100.00;95920.79;107215;1297;25414;-84
2024/02/25 03:19:25;;;;;;;;;;;;;;;4.93;100.00;95926.09;107028;1300;22574;-84
2024/02/25 03:21:51;;;;;;;;;;;;;;;4.95;100.00;95927.80;107001;1300;22592;-84
2024/02/25 03:24:19;;;;;;;;;;;;;;;5.00;100.00;95932.63;107301;1299;22590;-84
2024/02/25 03:26:49;;;;;;;;;;;;;;;5.01;100.00;95933.44;107160;1298;25408;-85
2024/02/25 03:29:15;;;;;;;;;;;;;;;5.00;100.00;95933.38;107069;1300;23693;-84
2024/02/25 03:31:42;;;;;;;;;;;;;;;5.05;100.00;95932.73;107090;1299;22527;-84
2024/02/25 03:34:09;;;;;;;;;;;;;;;5.14;100.00;95938.39;107152;1292;22531;-85
2024/02/25 03:36:36;;;;;;;;;;;;;;;5.29;100.00;95936.96;107150;1300;23303;-85
2024/02/25 03:39:02;;;;;;;;;;;;;;;5.37;99.98;95938.17;107158;1295;22554;-85
2024/02/25 03:41:29;;;;;;;;;;;;;;;5.41;99.81;95941.30;107175;1300;22527;-85
2024/02/25 03:43:55;;;;;;;;;;;;;;;5.37;99.44;95944.29;107246;1296;24230;-85
2024/02/25 03:46:22;;;;;;;;;;;;;;;5.27;99.23;95945.53;106873;1298;22540;-84
2024/02/25 03:48:48;;;;;;;;;;;;;;;5.16;99.20;95949.63;107134;1300;22553;-84
2024/02/25 03:51:15;;;;;;;;;;;;;;;5.06;99.14;95950.65;107050;1295;22521;-84
2024/02/25 03:53:43;;;;;;;;;;;;;;;5.00;99.23;95950.02;106965;1299;22575;-84
2024/02/25 03:56:10;;;;;;;;;;;;;;;5.02;99.31;95945.92;107205;1300;23115;-84
2024/02/25 03:58:36;;;;;;;;;;;;;;;5.03;99.51;95948.38;107071;1300;22565;-85
2024/02/25 04:01:03;;;;;;;;;;;;;;;4.98;99.49;95949.91;107173;1296;22527;-84
2024/02/25 04:03:29;;;;;;;;;;;;;;;4.89;99.43;95951.41;106977;1299;22548;-84
2024/02/25 04:05:56;;;;;;;;;;;;;;;4.77;99.45;95948.52;107235;1298;22634;-85
2024/02/25 04:08:24;;;;;;;;;;;;;;;4.65;99.40;95945.27;106978;1300;22575;-84
2024/02/25 04:10:50;;;;;;;;;;;;;;;4.56;99.67;95941.55;107006;1292;24196;-84
2024/02/25 04:13:17;;;;;;;;;;;;;;;4.46;99.90;95939.65;107189;1296;24910;-84
2024/02/25 04:15:44;;;;;;;;;;;;;;;4.41;100.00;95937.19;107230;1300;22568;-84
2024/02/25 04:18:11;;;;;;;;;;;;;;;4.38;100.00;95930.51;107141;1299;22591;-84
2024/02/25 04:20:37;;;;;;;;;;;;;;;4.34;100.00;95937.56;107088;1300;22550;-84
2024/02/25 04:23:03;;;;;;;;;;;;;;;4.35;100.00;95928.42;106992;1293;22531;-84
2024/02/25 04:25:30;;;;;;;;;;;;;;;4.29;100.00;95932.98;107062;1295;22554;-84
2024/02/25 04:27:56;;;;;;;;;;;;;;;4.21;100.00;95928.73;106906;1300;22562;-84
2024/02/25 04:30:23;;;;;;;;;;;;;;;4.19;100.00;95934.56;107211;1299;22534;-84
2024/02/25 04:32:50;;;;;;;;;;;;;;;4.20;100.00;95934.47;107052;1300;22523;-84
2024/02/25 04:35:17;;;;;;;;;;;;;;;4.20;100.00;95930.06;107004;1300;22548;-84
2024/02/25 04:37:44;;;;;;;;;;;;;;;4.11;100.00;95931.70;107131;1283;22547;-84
2024/02/25 04:40:11;;;;;;;;;;;;;;;4.05;100.00;95935.72;107216;1300;25427;-84
2024/02/25 04:42:37;;;;;;;;;;;;;;;4.01;100.00;95934.69;107126;1300;22574;-85
2024/02/25 04:45:05;;;;;;;;;;;;;;;3.98;100.00;95933.36;107193;1300;22556;-83
2024/02/25 04:47:32;;;;;;;;;;;;;;;3.93;100.00;95930.56;107131;1298;25805;-83
2024/02/25 04:49:58;;;;;;;;;;;;;;;3.87;100.00;95930.39;106961;1295;23052;-84
2024/02/25 04:52:24;;;;;;;;;;;;;;;3.82;100.00;95932.80;106979;1300;22527;-84
2024/02/25 04:54:51;;;;;;;;;;;;;;;3.78;100.00;95942.48;107084;1292;22524;-84
2024/02/25 04:57:17;;;;;;;;;;;;;;;3.80;100.00;95943.88;107064;1298;22568;-84
2024/02/25 04:59:44;;;;;;;;;;;;;;;3.76;100.00;95940.48;107013;1300;22586;-84
2024/02/25 05:02:10;;;;;;;;;;;;;;;3.76;100.00;95938.98;107173;1298;24225;-84
2024/02/25 05:04:39;;;;;;;;;;;;;;;3.71;100.00;95941.98;107042;1295;25278;-84
2024/02/25 05:07:05;;;;;;;;;;;;;;;3.65;100.00;95942.10;107128;1300;25022;-84
2024/02/25 05:09:32;;;;;;;;;;;;;;;3.63;100.00;95940.33;107069;1298;25969;-84
2024/02/25 05:11:58;;;;;;;;;;;;;;;3.63;100.00;95940.06;107199;1300;23154;-84
2024/02/25 05:14:24;;;;;;;;;;;;;;;3.63;100.00;95948.95;107076;1295;25589;-84
2024/02/25 05:16:51;;;;;;;;;;;;;;;3.61;100.00;95950.46;107203;1295;22569;-84
2024/02/25 05:19:17;;;;;;;;;;;;;;;3.60;100.00;95952.41;107040;1296;24234;-84
2024/02/25 05:21:47;;;;;;;;;;;;;;;3.59;100.00;95951.20;107046;1298;22535;-84
2024/02/25 05:24:14;;;;;;;;;;;;;;;3.56;100.00;95955.93;107164;1292;24220;-84
2024/02/25 05:26:40;;;;;;;;;;;;;;;3.54;100.00;95953.02;107174;1295;23979;-84
2024/02/25 05:29:07;;;;;;;;;;;;;;;3.53;100.00;95952.24;107074;1298;22581;-84
2024/02/25 05:31:33;;;;;;;;;;;;;;;3.51;100.00;95950.40;107176;1300;24218;-84
2024/02/25 05:34:00;;;;;;;;;;;;;;;3.49;100.00;95944.06;107010;1300;25427;-84
2024/02/25 05:36:27;;;;;;;;;;;;;;;3.48;100.00;95944.56;107114;1292;22581;-84
2024/02/25 05:38:53;;;;;;;;;;;;;;;3.46;100.00;95941.21;107125;1300;22597;-84
2024/02/25 05:41:20;;;;;;;;;;;;;;;3.54;100.00;95935.34;107238;1299;22998;-84
2024/02/25 05:43:46;;;;;;;;;;;;;;;3.61;100.00;95935.94;106974;1288;22559;-84
2024/02/25 05:46:13;;;;;;;;;;;;;;;3.59;100.00;95936.44;106979;1300;22828;-84
2024/02/25 05:48:39;;;;;;;;;;;;;;;3.58;100.00;95936.23;106935;1298;23365;-84
2024/02/25 05:51:07;;;;;;;;;;;;;;;3.53;100.00;95932.37;107036;1301;22553;-84
2024/02/25 05:53:33;;;;;;;;;;;;;;;3.49;100.00;95928.91;107051;1299;22527;-85
2024/02/25 05:56:00;;;;;;;;;;;;;;;3.48;100.00;95932.41;107259;1298;22604;-84
2024/02/25 05:58:26;;;;;;;;;;;;;;;3.48;100.00;95928.42;107150;1291;22922;-84
2024/02/25 06:00:53;;;;;;;;;;;;;;;3.53;100.00;95926.94;107076;1300;22534;-84
2024/02/25 06:03:19;;;;;;;;;;;;;;;3.57;100.00;95927.58;106970;1299;22530;-86
2024/02/25 06:05:46;;;;;;;;;;;;;;;3.58;100.00;95929.39;107190;1292;22567;-85
2024/02/25 06:08:12;;;;;;;;;;;;;;;3.58;100.00;95930.58;107154;1298;22526;-85
2024/02/25 06:10:39;;;;;;;;;;;;;;;3.55;100.00;95932.19;107123;1300;22531;-85
2024/02/25 06:13:06;;;;;;;;;;;;;;;3.53;100.00;95929.02;107259;1298;22540;-84
2024/02/25 06:15:33;;;;;;;;;;;;;;;3.50;100.00;95925.67;107087;1300;23918;-84
2024/02/25 06:17:59;;;;;;;;;;;;;;;3.47;100.00;95927.87;107051;1294;22495;-84
2024/02/25 06:20:26;;;;;;;;;;;;;;;3.47;100.00;95926.84;107016;1301;22556;-84
2024/02/25 06:22:52;;;;;;;;;;;;;;;3.46;100.00;95934.13;106966;1291;22560;-84
2024/02/25 06:25:18;;;;;;;;;;;;;;;3.44;100.00;95930.58;106953;1295;22631;-84
2024/02/25 06:27:45;;;;;;;;;;;;;;;3.46;100.00;95927.44;107224;1292;22531;-84
2024/02/25 06:30:12;;;;;;;;;;;;;;;3.45;100.00;95933.89;107099;1295;22527;-85
2024/02/25 06:32:39;;;;;;;;;;;;;;;3.47;100.00;95927.52;107280;1294;22536;-85
2024/02/25 06:35:06;;;;;;;;;;;;;;;3.50;100.00;95932.21;107220;1299;24387;-84
2024/02/25 06:37:32;;;;;;;;;;;;;;;3.49;100.00;95933.48;107142;1295;22540;-84
2024/02/25 06:39:59;;;;;;;;;;;;;;;3.51;100.00;95935.34;106911;1300;22556;-84
2024/02/25 06:42:27;;;;;;;;;;;;;;;3.57;100.00;95925.30;107054;1292;22547;-84
2024/02/25 06:44:53;;;;;;;;;;;;;;;3.59;100.00;95918.88;106999;1292;23011;-84
2024/02/25 06:47:19;;;;;;;;;;;;;;;3.57;100.00;95921.41;107223;1300;24261;-85
2024/02/25 06:49:46;;;;;;;;;;;;;;;3.58;100.00;95919.95;107052;1300;22584;-84
2024/02/25 06:52:12;;;;;;;;;;;;;;;3.62;100.00;95915.62;107029;1295;22593;-85
2024/02/25 06:54:41;;;;;;;;;;;;;;;3.64;100.00;95911.35;107227;1300;22547;-85
2024/02/25 06:57:07;;;;;;;;;;;;;;;3.65;100.00;95910.07;107111;1300;22550;-84
2024/02/25 06:59:34;;;;;;;;;;;;;;;3.66;100.00;95906.67;107083;1300;23646;-84
2024/02/25 07:02:00;;;;;;;;;;;;;;;3.76;100.00;95908.45;107056;1291;22524;-84
2024/02/25 07:04:27;;;;;;;;;;;;;;;3.99;100.00;95899.05;107060;1294;23112;-84
2024/02/25 07:06:53;;;;;;;;;;;;;;;4.35;100.00;95908.17;107028;1292;24304;-85
2024/02/25 07:09:19;;;;;;;;;;;;;;;4.66;100.00;95911.73;107298;1299;23892;-85
2024/02/25 07:11:48;;;;;;;;;;;;;;;4.98;100.00;95908.27;107274;1292;22645;-85
2024/02/25 07:14:14;;;;;;;;;;;;;;;5.29;100.00;95915.09;107096;1295;25409;-85
2024/02/25 07:16:41;;;;;;;;;;;;;;;5.53;100.00;95909.88;107054;1292;22604;-84
2024/02/25 07:19:07;;;;;;;;;;;;;;;5.78;98.69;95909.05;107228;1300;25407;-84
2024/02/25 07:21:34;;;;;;;;;;;;;;;6.02;98.94;95908.60;107139;1299;22553;-84
2024/02/25 07:24:00;;;;;;;;;;;;;;;6.15;97.03;95903.92;107041;1300;22658;-84
2024/02/25 07:26:27;;;;;;;;;;;;;;;6.28;96.41;95895.78;106918;1300;22526;-84
2024/02/25 07:28:54;;;;;;;;;;;;;;;6.38;96.16;95899.90;107071;1300;22540;-85
2024/02/25 07:31:20;;;;;;;;;;;;;;;6.49;94.64;95895.39;106908;1292;22574;-85
2024/02/25 07:33:50;;;;;;;;;;;;;;;6.69;92.90;95889.19;107124;1295;22543;-85
2024/02/25 07:36:20;;;;;;;;;;;;;;;6.84;93.37;95889.23;107226;1292;23801;-84
2024/02/25 07:38:46;;;;;;;;;;;;;;;6.93;92.83;95895.86;106981;1292;22536;-85
2024/02/25 07:41:13;;;;;;;;;;;;;;;7.04;90.80;95890.80;107181;1300;22543;-85
2024/02/25 07:43:39;;;;;;;;;;;;;;;7.15;90.93;95896.45;107174;1300;22563;-85
2024/02/25 07:46:06;;;;;;;;;;;;;;;7.24;91.21;95888.05;107127;1292;22549;-84
2024/02/25 07:48:32;;;;;;;;;;;;;;;7.31;90.01;95879.30;107186;1299;25450;-83
2024/02/25 07:50:59;;;;;;;;;;;;;;;7.40;88.67;95872.00;106907;1292;22568;-84
2024/02/25 07:53:26;;;;;;;;;;;;;;;7.47;86.97;95880.56;107218;1292;22575;-84
2024/02/25 07:55:52;;;;;;;;;;;;;;;7.53;87.90;95876.13;107234;1295;22565;-84
2024/02/25 07:58:18;;;;;;;;;;;;;;;7.61;88.32;95875.08;107147;1300;23699;-84
2024/02/25 08:00:45;;;;;;;;;;;;;;;7.64;88.39;95875.25;107260;1288;22544;-84
2024/02/25 08:03:11;;;;;;;;;;;;;;;7.66;87.76;95871.33;107145;1300;22594;-84
2024/02/25 08:05:38;;;;;;;;;;;;;;;7.71;87.36;95866.88;106962;1299;22576;-84
2024/02/25 08:08:05;;;;;;;;;;;;;;;7.74;87.72;95871.86;107270;1295;22543;-84
2024/02/25 08:10:32;;;;;;;;;;;;;;;7.81;84.64;95866.23;107330;1299;22556;-83
2024/02/25 08:12:59;;;;;;;;;;;;;;;7.90;86.70;95869.80;107325;1300;22560;-84
2024/02/25 08:15:26;;;;;;;;;;;;;;;7.93;86.95;95871.30;106990;1300;22570;-84
2024/02/25 08:17:52;;;;;;;;;;;;;;;7.98;87.49;95873.41;107110;1294;22540;-83
2024/02/25 08:20:19;;;;;;;;;;;;;;;7.97;87.80;95870.51;107030;1300;22554;-84
2024/02/25 08:22:45;;;;;;;;;;;;;;;7.97;88.18;95874.66;107101;1300;22563;-84
2024/02/25 08:25:11;;;;;;;;;;;;;;;7.95;85.87;95876.23;106948;1300;22565;-84
2024/02/25 08:27:38;;;;;;;;;;;;;;;8.01;85.70;95872.54;107063;1295;22538;-84
2024/02/25 08:30:05;;;;;;;;;;;;;;;8.05;85.77;95876.02;107169;1298;22642;-84
2024/02/25 08:32:32;;;;;;;;;;;;;;;8.07;86.36;95879.25;107087;1300;22575;-84
2024/02/25 08:34:59;;;;;;;;;;;;;;;8.08;86.27;95874.14;107072;1300;22572;-84
2024/02/25 08:37:26;;;;;;;;;;;;;;;8.08;86.15;95872.38;107217;1300;22574;-84
2024/02/25 08:39:53;;;;;;;;;;;;;;;8.11;85.38;95870.59;107238;1300;22526;-84
2024/02/25 08:42:20;;;;;;;;;;;;;;;8.18;85.19;95874.09;107012;1299;22569;-85
2024/02/25 08:44:47;;;;;;;;;;;;;;;8.27;84.95;95865.51;107070;1298;22598;-84
2024/02/25 08:47:13;;;;;;;;;;;;;;;8.34;84.04;95869.36;106988;1300;22530;-84
2024/02/25 08:49:40;;;;;;;;;;;;;;;8.39;84.99;95866.78;107057;1300;23642;-83
2024/02/25 08:52:07;;;;;;;;;;;;;;;8.46;85.75;95852.41;107143;1298;25426;-84
2024/02/25 08:54:35;;;;;;;;;;;;;;;8.54;86.72;95852.30;107043;1300;25412;-86
2024/02/25 08:57:02;;;;;;;;;;;;;;;8.62;86.61;95858.06;107056;1300;22574;-84
2024/02/25 08:59:28;;;;;;;;;;;;;;;8.72;88.79;95858.52;107274;1299;22523;-85
2024/02/25 09:01:55;;;;;;;;;;;;;;;8.75;89.11;95859.77;107162;1299;22676;-85
2024/02/25 09:04:27;;;;;;;;;;;;;;;8.81;87.14;95857.61;107002;1294;22561;-85
2024/02/25 09:06:57;;;;;;;;;;;;;;;8.88;84.60;95855.18;107043;1294;23437;-84
2024/02/25 09:09:23;;;;;;;;;;;;;;;8.97;84.45;95850.98;107140;1292;22621;-84
2024/02/25 09:11:50;;;;;;;;;;;;;;;9.04;84.37;95846.97;107261;1291;22603;-84
2024/02/25 09:14:16;;;;;;;;;;;;;;;9.14;84.63;95846.70;107239;1292;22639;-85
2024/02/25 09:16:43;;;;;;;;;;;;;;;9.20;82.90;95846.05;107243;1300;22568;-84
2024/02/25 09:19:10;;;;;;;;;;;;;;;9.25;82.31;95846.19;107295;1299;25412;-85
2024/02/25 09:21:37;;;;;;;;;;;;;;;9.30;81.72;95842.35;106953;1301;304026;-85
2024/02/25 09:24:05;;;;;;;;;;;;;;;9.35;80.05;95836.05;107046;1301;24250;-85
2024/02/25 09:26:32;;;;;;;;;;;;;;;9.41;80.83;95837.48;107339;1296;24097;-85
2024/02/25 09:28:59;;;;;;;;;;;;;;;9.46;81.41;95833.43;107109;1294;23710;-85
2024/02/25 09:31:26;;;;;;;;;;;;;;;9.51;82.40;95838.65;107119;1300;22537;-85
2024/02/25 09:33:54;;;;;;;;;;;;;;;9.55;81.14;95837.83;107284;1295;22598;-85
2024/02/25 09:36:24;;;;;;;;;;;;;;;9.59;80.07;95835.73;106989;1301;22590;-85
2024/02/25 09:38:50;;;;;;;;;;;;;;;9.65;79.84;95838.23;107212;1300;22727;-85
2024/02/25 09:41:24;;;;;;;;;;;;;;;9.70;81.34;95836.70;107257;1300;22538;-85
2024/02/25 09:43:52;;;;;;;;;;;;;;;9.75;81.01;95835.38;106907;1297;25425;-85
2024/02/25 09:46:18;;;;;;;;;;;;;;;9.81;80.56;95838.46;107156;1300;25431;-84
2024/02/25 09:48:54;;;;;;;;;;;;;;;9.90;79.43;95847.85;106966;1300;22540;-85
2024/02/25 09:51:23;;;;;;;;;;;;;;;9.98;78.06;95839.48;106992;1300;22563;-85
2024/02/25 09:53:52;;;;;;;;;;;;;;;10.03;77.89;95834.23;107192;1293;22767;-83
2024/02/25 09:56:19;;;;;;;;;;;;;;;10.11;78.39;95833.33;107211;1298;22534;-84
2024/02/25 09:58:45;;;;;;;;;;;;;;;10.17;78.17;95830.64;107022;1300;22522;-84
2024/02/25 10:01:12;;;;;;;;;;;;;;;10.25;76.67;95832.71;107094;1294;22545;-84
2024/02/25 10:03:39;;;;;;;;;;;;;;;10.32;76.30;95822.35;107000;1292;22592;-84
2024/02/25 10:06:05;;;;;;;;;;;;;;;10.38;76.56;95829.23;106868;1300;23931;-84
2024/02/25 10:08:48;;;;;;;;;;;;;;;10.48;76.76;95823.30;106854;1299;22737;-84
2024/02/25 10:11:14;;;;;;;;;;;;;;;10.56;76.07;95827.75;106915;1300;22542;-83
2024/02/25 10:13:45;;;;;;;;;;;;;;;10.64;76.01;95817.08;107036;1298;23879;-84
2024/02/25 10:16:16;;;;;;;;;;;;;;;10.73;75.15;95823.85;107105;1300;23140;-84
2024/02/25 10:18:43;;;;;;;;;;;;;;;10.81;75.00;95819.67;107052;1295;22549;-84
2024/02/25 10:21:09;;;;;;;;;;;;;;;10.86;75.10;95816.80;106946;1294;22590;-84
2024/02/25 10:23:36;;;;;;;;;;;;;;;10.90;74.97;95812.54;107125;1300;22574;-83
2024/02/25 10:26:15;;;;;;;;;;;;;;;10.90;73.86;95809.77;107053;1298;22555;-84
2024/02/25 10:28:42;;;;;;;;;;;;;;;10.92;71.65;95808.35;107176;1294;22531;-84
2024/02/25 10:31:14;;;;;;;;;;;;;;;10.94;72.05;95804.76;106975;1300;23671;-83
2024/02/25 10:33:42;;;;;;;;;;;;;;;10.98;71.99;95791.80;106952;1300;24285;-83
2024/02/25 10:36:12;;;;;;;;;;;;;;;11.00;71.41;95791.79;107011;1295;24231;-84
2024/02/25 10:38:39;;;;;;;;;;;;;;;11.03;70.99;95787.08;108270;1295;22422;-84
2024/02/25 10:41:06;;;;;;;;;;;;;;;11.10;70.86;95789.45;107760;1295;25407;-84
2024/02/25 10:43:34;;;;;;;;;;;;;;;11.15;70.16;95786.17;107124;1300;22558;-84
2024/02/25 10:46:05;;;;;;;;;;;;;;;11.19;69.94;95786.48;107029;1297;22619;-83
2024/02/25 10:48:31;;;;;;;;;;;;;;;11.22;70.93;95782.34;107022;1300;22960;-85
2024/02/25 10:50:58;;;;;;;;;;;;;;;11.27;70.60;95779.98;106995;1300;22530;-84
2024/02/25 10:53:28;;;;;;;;;;;;;;;11.33;70.38;95779.92;107030;1300;22547;-84
2024/02/25 10:56:00;;;;;;;;;;;;;;;11.39;70.32;95774.33;107039;1292;22597;-83
2024/02/25 10:58:26;;;;;;;;;;;;;;;11.46;70.23;95774.32;107256;1295;22527;-84
2024/02/25 11:00:53;;;;;;;;;;;;;;;11.53;70.27;95772.95;106981;1300;24236;-84
2024/02/25 11:03:21;;;;;;;;;;;;;;;11.62;68.44;95770.81;107015;1294;22579;-84
2024/02/25 11:05:48;;;;;;;;;;;;;;;11.73;69.64;95766.71;107000;1291;23050;-84
2024/02/25 11:08:26;;;;;;;;;;;;;;;11.82;67.73;95765.80;107178;1299;22666;-84
2024/02/25 11:10:58;;;;;;;;;;;;;;;11.87;68.39;95761.59;107000;1300;25307;-84
2024/02/25 11:13:26;;;;;;;;;;;;;;;11.93;68.13;95766.06;107043;1294;22601;-83
2024/02/25 11:15:56;;;;;;;;;;;;;;;11.95;67.71;95761.40;107016;1301;22606;-84
2024/02/25 11:18:23;;;;;;;;;;;;;;;11.99;66.40;95750.85;107087;1300;23414;-84
2024/02/25 11:20:55;;;;;;;;;;;;;;;12.00;67.14;95751.05;106987;1300;23757;-84
2024/02/25 11:23:22;;;;;;;;;;;;;;;12.05;65.99;95754.33;106940;1301;25411;-85
2024/02/25 11:25:49;;;;;;;;;;;;;;;12.09;62.17;95754.31;107003;1295;22558;-84
2024/02/25 11:28:15;;;;;;;;;;;;;;;12.12;63.33;95751.34;106962;1300;22556;-84
2024/02/25 11:30:45;;;;;;;;;;;;;;;12.11;64.71;95743.45;107168;1300;23249;-84
2024/02/25 11:33:33;;;;;;;;;;;;;;;12.12;63.13;95752.41;107182;1292;22548;-84
2024/02/25 11:36:00;;;;;;;;;;;;;;;12.11;63.53;95748.53;107205;1294;22576;-84
2024/02/25 11:38:27;;;;;;;;;;;;;;;12.07;62.71;95750.12;107218;1294;22646;-84
2024/02/25 11:40:57;;;;;;;;;;;;;;;12.08;62.35;95748.11;106960;1300;22639;-84
2024/02/25 11:43:26;;;;;;;;;;;;;;;12.09;61.95;95751.75;106995;1300;24823;-85
2024/02/25 11:45:54;;;;;;;;;;;;;;;12.13;62.59;95746.39;107204;1300;23028;-84
2024/02/25 11:48:20;;;;;;;;;;;;;;;12.16;61.54;95742.81;107189;1300;22629;-84
2024/02/25 11:50:50;;;;;;;;;;;;;;;12.21;62.64;95747.58;107192;1298;25440;-84
2024/02/25 11:53:17;;;;;;;;;;;;;;;12.22;62.36;95745.98;107176;1289;24138;-85
2024/02/25 11:55:43;;;;;;;;;;;;;;;12.20;62.22;95742.23;107207;1300;22531;-84
2024/02/25 11:58:10;;;;;;;;;;;;;;;12.16;62.78;95744.70;106968;1300;22560;-85
2024/02/25 12:00:37;;;;;;;;;;;;;;;12.13;62.83;95742.55;107066;1295;22595;-84
2024/02/25 12:03:04;;;;;;;;;;;;;;;12.12;62.50;95741.32;107043;1300;24264;-84
2024/02/25 12:05:31;;;;;;;;;;;;;;;12.12;62.12;95739.55;107204;1286;25968;-84
2024/02/25 12:07:58;;;;;;;;;;;;;;;12.11;60.49;95736.08;107164;1300;24445;-84
2024/02/25 12:10:25;;;;;;;;;;;;;;;12.08;60.20;95730.40;107251;1292;22548;-84
2024/02/25 12:12:51;;;;;;;;;;;;;;;12.06;59.99;95733.26;107207;1295;22576;-84
2024/02/25 12:15:18;;;;;;;;;;;;;;;12.06;61.22;95728.98;106947;1300;22576;-84
2024/02/25 12:17:45;;;;;;;;;;;;;;;12.09;62.14;95732.69;107176;1292;22635;-85
2024/02/25 12:20:13;;;;;;;;;;;;;;;12.12;60.85;95722.37;106900;1300;22534;-84
2024/02/25 12:22:39;;;;;;;;;;;;;;;12.13;60.43;95722.48;107195;1292;24002;-85
2024/02/25 12:25:07;;;;;;;;;;;;;;;12.14;60.52;95721.88;107090;1295;22552;-84
2024/02/25 12:27:33;;;;;;;;;;;;;;;12.16;61.31;95719.79;107240;1300;22540;-84
2024/02/25 12:30:02;;;;;;;;;;;;;;;12.15;59.98;95717.06;107248;1295;22576;-84
2024/02/25 12:32:29;;;;;;;;;;;;;;;12.14;60.70;95717.35;107204;1298;22566;-84
2024/02/25 12:34:56;;;;;;;;;;;;;;;12.13;60.90;95713.19;106927;1294;22535;-84
2024/02/25 12:37:23;;;;;;;;;;;;;;;12.11;61.43;95707.55;107049;1291;22595;-84
2024/02/25 12:39:49;;;;;;;;;;;;;;;12.10;60.11;95705.15;106977;1292;22943;-85